Main page
METAR-TAF:

METAR-TAF

Airports :

Kuwait City, Kuwait

Kuwait International Airport

latitude: 29-13N, longitude: 047-59E, elevation: 55 m

Current weather observation

The report was made 58 minutes ago, at 04:00 UTC
Wind 3 kt from the West/Southwest
Temperature 35°C
Humidity 19%
Pressure 998 hPa
Visibility: 6000 m
Clear sky

METAR: OKBK 220400Z 25003KT 6000 SKC 35/08 Q0998 NOSIG

Time: 07:58 (04:58 UTC)

Forecast

The report was made 6 hours and 13 minutes ago, at 22:45 UTC
Forecast valid from 22 at 00 UTC to 23 at 06 UTC
Wind 3 kt from variable directions
Visibility: 8000 m
Clear sky
Becoming
from 22 at 01 UTC to 22 at 03 UTC
Wind 12 kt from the North/Northwest

TAF: OKBK 212245Z 2200/2306 VRB03KT 8000 SKC BECMG 2201/2203 34012KT

Weather observations and forecasts of more than 4000 airports (METAR and TAF reports).

The available stations are represented by yellow and red dots on the map.

Hover mouse over dot to see the name of the station.

Then click to see weather observations and forecasts.

To change the map : click on the green buttons with a black cross to zoom in, on the green button with a dash to zoom out, or on the green arrows for adjacent maps.


METAR-TAF: